Time;durP1;ratioP1;P1;durP2;ratioP2;P2;SDS_P1;SDS_P2;PMS_P1;PMS_P2;Temp;Humidity;BMP_temperature;BMP_pressure;BME280_temperature;BME280_humidity;BME280_pressure;Samples;Min_cycle;Max_cycle;Signal;HPM_P1;HPM_P2
2023/09/12 00:00:15;;;;;;;18.63;16.42;;;;;;;20.01;100.00;101093.31;5054484;28;20032;-68
2023/09/12 00:02:40;;;;;;;21.83;17.02;;;;;;;20.05;100.00;101102.66;5052389;28;20403;-70
2023/09/12 00:05:06;;;;;;;20.73;17.15;;;;;;;19.99;100.00;101101.03;5054598;28;20029;-69
2023/09/12 00:07:31;;;;;;;18.63;16.63;;;;;;;20.05;100.00;101104.56;5064931;28;20086;-69
2023/09/12 00:09:57;;;;;;;20.85;16.83;;;;;;;20.06;100.00;101107.00;5074639;28;20106;-68
2023/09/12 00:12:24;;;;;;;23.70;17.05;;;;;;;20.06;100.00;101103.47;5056262;28;20446;-67
2023/09/12 00:14:50;;;;;;;20.30;16.67;;;;;;;20.01;100.00;101109.81;5074419;28;20033;-67
2023/09/12 00:17:15;;;;;;;17.90;15.93;;;;;;;20.03;100.00;101106.78;5073859;28;20094;-67
2023/09/12 00:19:40;;;;;;;20.80;17.08;;;;;;;20.09;100.00;101108.38;5074035;28;20032;-69
2023/09/12 00:22:05;;;;;;;19.63;16.38;;;;;;;19.99;100.00;101115.56;5068583;28;20025;-70
2023/09/12 00:24:31;;;;;;;21.27;17.02;;;;;;;19.95;100.00;101116.44;5053981;28;20033;-68
2023/09/12 00:26:56;;;;;;;23.42;17.20;;;;;;;20.01;100.00;101110.63;5066284;28;20078;-68
2023/09/12 00:29:21;;;;;;;21.35;16.70;;;;;;;19.89;100.00;101115.63;5073936;28;20024;-68
2023/09/12 00:31:47;;;;;;;22.90;17.90;;;;;;;19.83;100.00;101103.81;5074138;28;20021;-69
2023/09/12 00:34:16;;;;;;;28.17;17.80;;;;;;;19.86;100.00;101109.88;5056002;28;20024;-69
2023/09/12 00:36:42;;;;;;;19.90;16.75;;;;;;;19.93;100.00;101111.22;5073959;28;20033;-69
2023/09/12 00:39:07;;;;;;;18.23;15.90;;;;;;;19.85;100.00;101117.28;5074247;28;20032;-69
2023/09/12 00:41:32;;;;;;;18.27;16.02;;;;;;;19.85;100.00;101102.72;5044561;28;20092;-69
2023/09/12 00:43:58;;;;;;;19.45;15.90;;;;;;;19.88;100.00;101105.72;5056851;28;20057;-69
2023/09/12 00:46:24;;;;;;;24.35;15.18;;;;;;;19.82;100.00;101109.59;5062807;28;20411;-70
2023/09/12 00:48:51;;;;;;;21.98;16.15;;;;;;;19.76;100.00;101108.78;5056508;28;20037;-67
2023/09/12 00:51:19;;;;;;;23.60;16.55;;;;;;;19.71;100.00;101105.25;5053607;28;20121;-68
2023/09/12 00:53:44;;;;;;;21.73;16.27;;;;;;;19.71;100.00;101099.75;5053762;28;20040;-69
2023/09/12 00:56:10;;;;;;;20.20;16.75;;;;;;;19.72;100.00;101101.41;5053672;28;20383;-68
2023/09/12 00:58:35;;;;;;;21.15;16.35;;;;;;;19.63;100.00;101095.66;5053432;28;20399;-69
2023/09/12 01:01:02;;;;;;;18.98;16.48;;;;;;;19.59;100.00;101098.13;5040592;28;20021;-67
2023/09/12 01:03:27;;;;;;;23.38;15.88;;;;;;;19.58;100.00;101095.66;5073446;28;20045;-67
2023/09/12 01:05:53;;;;;;;19.33;15.80;;;;;;;19.62;100.00;101100.31;5071641;28;20028;-70
2023/09/12 01:08:19;;;;;;;20.88;15.55;;;;;;;19.59;100.00;101102.81;5073102;28;20160;-69
2023/09/12 01:10:47;;;;;;;23.92;15.70;;;;;;;19.55;100.00;101091.56;5060829;28;20090;-68
2023/09/12 01:13:14;;;;;;;20.98;15.30;;;;;;;19.46;100.00;101087.72;5053364;28;20028;-70
2023/09/12 01:15:41;;;;;;;20.85;16.63;;;;;;;19.43;100.00;101088.28;5052944;28;20086;-67
2023/09/12 01:18:07;;;;;;;21.33;15.93;;;;;;;19.49;100.00;101098.19;5053289;28;20029;-69
2023/09/12 01:20:35;;;;;;;25.90;16.27;;;;;;;19.44;100.00;101096.25;5052704;28;20039;-67
2023/09/12 01:23:25;;;;;;;18.95;16.00;;;;;;;19.52;100.00;101092.13;5053149;28;20028;-70
2023/09/12 01:26:32;;;;;;;23.50;15.20;;;;;;;19.46;100.00;101093.22;5052549;28;20498;-67
2023/09/12 01:28:58;;;;;;;23.50;17.38;;;;;;;19.39;100.00;101093.53;5029783;28;20123;-69
2023/09/12 01:31:24;;;;;;;23.75;15.07;;;;;;;19.39;100.00;101082.56;5052911;28;20056;-68
2023/09/12 01:33:55;;;;;;;17.52;15.30;;;;;;;19.44;100.00;101073.47;5052883;28;20074;-70
2023/09/12 01:36:20;;;;;;;20.27;16.05;;;;;;;19.47;100.00;101082.00;5051907;28;20029;-70
2023/09/12 01:38:45;;;;;;;19.85;14.52;;;;;;;19.45;100.00;101077.88;5035008;28;20408;-69
2023/09/12 01:41:11;;;;;;;21.60;15.52;;;;;;;19.42;100.00;101082.00;5053087;28;20040;-68
2023/09/12 01:43:39;;;;;;;21.92;15.13;;;;;;;19.43;100.00;101082.81;5052606;28;20032;-66
2023/09/12 01:46:04;;;;;;;21.60;15.10;;;;;;;19.35;100.00;101086.13;5062407;28;20039;-67
2023/09/12 01:48:33;;;;;;;24.17;14.88;;;;;;;19.34;100.00;101090.81;5072449;28;20358;-68
2023/09/12 01:51:00;;;;;;;19.33;15.38;;;;;;;19.25;100.00;101093.28;5058889;28;20029;-69
2023/09/12 01:53:26;;;;;;;20.50;15.82;;;;;;;19.19;100.00;101096.31;5034450;28;20044;-66
2023/09/12 01:55:52;;;;;;;22.63;15.88;;;;;;;19.23;100.00;101095.47;5052577;28;20632;-67
2023/09/12 01:58:17;;;;;;;23.73;15.95;;;;;;;19.25;100.00;101097.97;5052626;28;20024;-66
2023/09/12 02:00:43;;;;;;;19.63;15.40;;;;;;;19.20;100.00;101096.03;5049691;28;20021;-67
2023/09/12 02:03:08;;;;;;;19.77;15.55;;;;;;;19.09;100.00;101092.47;5052115;28;20416;-69
2023/09/12 02:05:34;;;;;;;19.45;16.52;;;;;;;19.08;100.00;101087.28;5051383;28;20119;-67
2023/09/12 02:08:04;;;;;;;23.50;17.48;;;;;;;19.13;100.00;101085.34;5034596;28;20116;-69
2023/09/12 02:10:30;;;;;;;19.23;15.23;;;;;;;19.11;100.00;101086.72;5052331;28;20029;-67
2023/09/12 02:12:55;;;;;;;21.38;16.63;;;;;;;19.01;100.00;101083.97;5052492;28;20077;-68
2023/09/12 02:15:20;;;;;;;23.08;15.98;;;;;;;19.03;100.00;101087.28;5052063;28;20025;-67
2023/09/12 02:17:46;;;;;;;20.67;15.95;;;;;;;18.97;100.00;101082.91;5034228;28;20029;-68
2023/09/12 02:20:11;;;;;;;20.35;15.10;;;;;;;18.98;100.00;101079.91;5052208;28;20033;-67
2023/09/12 02:22:36;;;;;;;19.27;15.45;;;;;;;18.99;100.00;101087.00;5052090;28;20051;-68
2023/09/12 02:25:04;;;;;;;21.25;15.48;;;;;;;18.99;100.00;101086.19;5050774;28;20024;-68
2023/09/12 02:27:30;;;;;;;24.35;15.75;;;;;;;18.92;100.00;101090.03;5052096;28;20537;-68
2023/09/12 02:29:55;;;;;;;16.92;13.70;;;;;;;18.83;100.00;101091.66;5052329;28;20032;-68
2023/09/12 02:32:20;;;;;;;18.73;14.68;;;;;;;18.79;100.00;101090.56;5052225;28;20025;-68
2023/09/12 02:34:46;;;;;;;25.13;14.20;;;;;;;18.78;100.00;101091.66;5052314;28;20029;-68
2023/09/12 02:37:11;;;;;;;18.27;13.82;;;;;;;18.80;100.00;101092.22;5051895;28;20033;-68
2023/09/12 02:39:36;;;;;;;14.43;12.82;;;;;;;18.81;100.00;101082.91;5051434;28;20036;-67
2023/09/12 02:42:02;;;;;;;17.33;12.45;;;;;;;18.80;100.00;101085.91;5052094;28;20346;-67
2023/09/12 02:44:27;;;;;;;14.93;12.38;;;;;;;18.83;100.00;101085.38;5051882;28;20488;-67
2023/09/12 02:46:53;;;;;;;14.02;12.25;;;;;;;18.81;100.00;101082.91;5052143;28;20460;-68
2023/09/12 02:49:18;;;;;;;17.15;12.07;;;;;;;18.73;100.00;101086.16;5052699;28;20029;-69
2023/09/12 02:51:45;;;;;;;16.45;12.50;;;;;;;18.81;100.00;101082.91;5034023;28;20376;-67
2023/09/12 02:54:10;;;;;;;17.05;12.10;;;;;;;18.75;100.00;101079.34;5051578;28;20044;-68
2023/09/12 02:56:36;;;;;;;16.10;13.05;;;;;;;18.67;100.00;101084.53;5052055;28;20025;-69
2023/09/12 02:59:01;;;;;;;18.92;13.20;;;;;;;18.69;100.00;101079.59;5051448;28;20033;-69
2023/09/12 03:01:28;;;;;;;15.40;12.30;;;;;;;18.73;100.00;101086.16;5049161;28;20033;-68
2023/09/12 03:03:53;;;;;;;15.57;12.85;;;;;;;18.65;100.00;101089.47;5052024;28;20044;-69
2023/09/12 03:06:19;;;;;;;18.98;12.65;;;;;;;18.53;100.00;101084.25;5052025;28;20033;-68
2023/09/12 03:08:45;;;;;;;17.25;11.98;;;;;;;18.58;100.00;101085.09;5051732;28;20079;-68
2023/09/12 03:11:10;;;;;;;14.82;12.23;;;;;;;18.58;100.00;101084.25;5051697;28;20460;-69
2023/09/12 03:13:37;;;;;;;17.95;11.75;;;;;;;18.62;100.00;101093.56;5051134;28;20076;-68
2023/09/12 03:16:03;;;;;;;16.00;11.98;;;;;;;18.60;100.00;101091.09;5033918;28;20388;-68
2023/09/12 03:18:28;;;;;;;17.27;13.00;;;;;;;18.55;100.00;101087.53;5051590;28;20107;-68
2023/09/12 03:20:54;;;;;;;18.40;14.40;;;;;;;18.44;100.00;101083.97;5051587;28;20064;-68
2023/09/12 03:23:20;;;;;;;17.00;13.30;;;;;;;18.46;100.00;101075.47;5071547;28;20028;-68
2023/09/12 03:25:45;;;;;;;20.02;14.60;;;;;;;18.41;100.00;101068.06;5061749;28;20108;-70
2023/09/12 03:28:12;;;;;;;18.58;14.93;;;;;;;18.49;100.00;101064.78;5052084;28;20468;-70
2023/09/12 03:30:38;;;;;;;17.05;14.02;;;;;;;18.54;100.00;101070.28;5074009;28;20103;-69
2023/09/12 03:33:04;;;;;;;16.65;13.85;;;;;;;18.47;100.00;101069.72;5050346;28;20025;-69
2023/09/12 03:35:31;;;;;;;20.48;14.60;;;;;;;18.46;100.00;101070.81;5036826;28;20040;-70
2023/09/12 03:37:56;;;;;;;21.33;14.15;;;;;;;18.47;100.00;101071.66;5062835;28;20061;-69
2023/09/12 03:40:21;;;;;;;19.30;14.48;;;;;;;18.41;100.00;101060.66;5074824;28;20028;-67
2023/09/12 03:42:47;;;;;;;22.98;14.35;;;;;;;18.40;100.00;101067.25;5074902;28;20044;-70
2023/09/12 03:45:12;;;;;;;18.02;13.88;;;;;;;18.46;100.00;101070.81;5074733;28;20035;-71
2023/09/12 03:47:37;;;;;;;16.40;13.88;;;;;;;18.41;100.00;101076.28;5066139;28;20052;-68
2023/09/12 03:50:03;;;;;;;20.42;14.65;;;;;;;18.33;100.00;101071.38;5054458;28;20029;-69
2023/09/12 03:52:29;;;;;;;19.80;13.77;;;;;;;18.32;100.00;101070.53;5054617;28;20029;-69
2023/09/12 03:54:54;;;;;;;17.15;13.52;;;;;;;18.43;100.00;101074.09;5072232;28;20411;-70
2023/09/12 03:57:19;;;;;;;20.20;13.20;;;;;;;18.40;100.00;101066.41;5074848;28;20116;-69
2023/09/12 03:59:46;;;;;;;15.60;12.85;;;;;;;18.42;100.00;101066.97;5074590;28;20028;-69
2023/09/12 04:02:12;;;;;;;17.00;13.35;;;;;;;18.36;100.00;101066.16;5061196;28;20039;-69
2023/09/12 04:04:37;;;;;;;15.75;12.77;;;;;;;18.36;100.00;101062.59;5057688;28;20502;-67
2023/09/12 04:07:03;;;;;;;16.17;12.82;;;;;;;18.39;100.00;101062.88;5061111;28;20502;-70
2023/09/12 04:09:28;;;;;;;18.40;13.82;;;;;;;18.36;100.00;101066.16;5068084;28;20032;-67
2023/09/12 04:11:54;;;;;;;14.35;12.48;;;;;;;18.33;100.00;101061.22;5075798;28;20029;-69
2023/09/12 04:14:20;;;;;;;14.43;12.75;;;;;;;18.28;100.00;101052.97;5076111;28;20472;-70
2023/09/12 04:16:46;;;;;;;13.80;12.20;;;;;;;18.27;100.00;101053.25;5072900;28;20028;-69
2023/09/12 04:19:12;;;;;;;24.42;13.00;;;;;;;18.27;100.00;101064.19;5055091;28;20086;-69
2023/09/12 04:21:37;;;;;;;15.40;12.20;;;;;;;18.24;100.00;101057.38;5057528;28;20024;-69
2023/09/12 04:24:02;;;;;;;16.85;12.30;;;;;;;18.16;100.00;101058.72;5073042;28;20111;-69
2023/09/12 04:26:28;;;;;;;18.63;12.43;;;;;;;18.20;100.00;101051.59;5074241;28;20073;-69
2023/09/12 04:28:53;;;;;;;16.70;12.73;;;;;;;18.24;100.00;101049.97;5074226;28;20029;-68
2023/09/12 04:31:19;;;;;;;17.25;12.30;;;;;;;18.19;100.00;101063.66;5072026;28;20064;-69
2023/09/12 04:33:44;;;;;;;18.83;12.80;;;;;;;18.17;100.00;101057.63;5070927;28;20048;-68
2023/09/12 04:36:09;;;;;;;19.85;13.13;;;;;;;18.14;100.00;101069.13;5054104;28;20029;-68
2023/09/12 04:38:37;;;;;;;17.65;12.57;;;;;;;18.19;100.00;101066.41;5053542;28;20508;-69
2023/09/12 04:41:04;;;;;;;22.42;12.60;;;;;;;18.19;100.00;101068.31;5070465;28;20174;-68
2023/09/12 04:43:30;;;;;;;20.20;12.95;;;;;;;18.13;100.00;101066.66;5056492;28;20058;-69
2023/09/12 04:45:56;;;;;;;19.23;13.20;;;;;;;18.08;100.00;101061.97;5055810;28;20028;-70
2023/09/12 04:48:21;;;;;;;21.83;12.85;;;;;;;18.14;100.00;101068.31;5073800;28;20031;-68
2023/09/12 04:50:47;;;;;;;15.25;12.82;;;;;;;18.21;100.00;101066.94;5073291;28;20106;-69
2023/09/12 04:53:12;;;;;;;19.60;13.20;;;;;;;18.24;100.00;101074.63;5060456;28;20110;-70
2023/09/12 04:55:38;;;;;;;22.27;13.38;;;;;;;18.21;100.00;101075.16;5053159;28;20048;-69
2023/09/12 04:58:05;;;;;;;18.25;12.63;;;;;;;18.26;100.00;101076.28;5053659;28;20032;-68
2023/09/12 05:00:31;;;;;;;20.85;13.18;;;;;;;18.27;100.00;101083.38;5051392;28;20120;-67
2023/09/12 05:02:56;;;;;;;17.15;13.05;;;;;;;18.27;100.00;101081.47;5053420;28;20101;-71
2023/09/12 05:05:21;;;;;;;17.08;12.90;;;;;;;18.22;100.00;101079.56;5053273;28;20392;-71
2023/09/12 05:07:47;;;;;;;17.85;13.20;;;;;;;18.27;100.00;101077.91;5052824;28;20029;-71
2023/09/12 05:10:13;;;;;;;19.15;12.60;;;;;;;18.26;100.00;101076.28;5053473;28;20029;-69
2023/09/12 05:12:38;;;;;;;18.45;13.57;;;;;;;18.33;100.00;101080.41;5053185;28;20031;-71
2023/09/12 05:15:04;;;;;;;17.38;13.50;;;;;;;18.35;100.00;101091.09;5053113;28;20028;-68
2023/09/12 05:17:29;;;;;;;18.90;15.27;;;;;;;18.30;100.00;101086.41;5053561;28;20047;-67
2023/09/12 05:19:54;;;;;;;23.55;15.13;;;;;;;18.22;100.00;101084.19;5052969;28;20025;-67
2023/09/12 05:22:20;;;;;;;22.50;15.27;;;;;;;18.24;100.00;101080.09;5052352;28;20029;-68
2023/09/12 05:24:45;;;;;;;19.58;15.85;;;;;;;18.23;100.00;101077.63;5050412;28;20029;-67
2023/09/12 05:27:11;;;;;;;23.35;16.58;;;;;;;18.19;100.00;101066.41;5053085;28;20077;-68
2023/09/12 05:29:36;;;;;;;21.00;15.35;;;;;;;18.25;100.00;101059.00;5052785;28;20032;-67
2023/09/12 05:32:02;;;;;;;21.60;15.82;;;;;;;18.20;100.00;101056.25;5051692;28;20053;-67
2023/09/12 05:34:28;;;;;;;19.55;15.48;;;;;;;18.22;100.00;101048.59;5035012;28;20037;-67
2023/09/12 05:36:53;;;;;;;22.20;16.13;;;;;;;18.27;100.00;101045.03;5034801;28;20025;-67
2023/09/12 05:39:18;;;;;;;21.45;16.25;;;;;;;18.31;100.00;101048.88;5052927;28;20033;-68
2023/09/12 05:41:44;;;;;;;20.42;15.88;;;;;;;18.23;100.00;101051.06;5051979;28;20033;-69
2023/09/12 05:44:12;;;;;;;21.17;15.85;;;;;;;18.37;100.00;101056.00;5052683;28;20040;-69
2023/09/12 05:46:37;;;;;;;21.95;16.08;;;;;;;18.40;100.00;101053.56;5052193;28;20366;-67
2023/09/12 05:49:03;;;;;;;23.52;15.88;;;;;;;18.36;100.00;101060.66;5052698;28;20123;-69
2023/09/12 05:51:29;;;;;;;25.48;17.13;;;;;;;18.41;100.00;101068.06;5052234;28;20039;-71
2023/09/12 05:53:54;;;;;;;21.70;16.77;;;;;;;18.39;100.00;101068.34;5070703;28;20119;-71
2023/09/12 05:56:20;;;;;;;20.42;16.17;;;;;;;18.30;100.00;101069.97;5068584;28;20051;-71
2023/09/12 05:58:46;;;;;;;23.67;17.52;;;;;;;18.36;100.00;101065.34;5052375;28;20025;-70
2023/09/12 06:01:11;;;;;;;19.92;16.83;;;;;;;18.36;100.00;101062.59;5050231;28;20031;-72
2023/09/12 06:03:36;;;;;;;22.73;17.65;;;;;;;18.42;100.00;101078.75;5052186;28;20053;-71
2023/09/12 06:06:02;;;;;;;22.25;17.00;;;;;;;18.43;100.00;101079.56;5043085;28;20035;-70
2023/09/12 06:08:27;;;;;;;20.30;16.95;;;;;;;18.47;100.00;101077.94;5071947;28;20471;-69
2023/09/12 06:10:54;;;;;;;23.85;16.77;;;;;;;18.47;100.00;101077.94;5068844;28;20085;-69
2023/09/12 06:13:19;;;;;;;23.58;18.20;;;;;;;18.47;100.00;101083.41;5051608;28;20033;-70
2023/09/12 06:15:45;;;;;;;26.45;17.23;;;;;;;18.53;100.00;101082.31;5051778;28;20048;-70
2023/09/12 06:18:10;;;;;;;24.02;16.80;;;;;;;18.36;100.00;101087.25;5052168;28;20060;-70
2023/09/12 06:20:36;;;;;;;23.83;17.08;;;;;;;18.38;100.00;101085.88;5051696;28;20028;-70
2023/09/12 06:23:03;;;;;;;24.85;16.88;;;;;;;18.42;100.00;101097.94;5050923;28;20043;-70
2023/09/12 06:25:29;;;;;;;22.55;16.70;;;;;;;18.35;100.00;101091.88;5056426;28;20036;-72
2023/09/12 06:27:54;;;;;;;29.10;18.35;;;;;;;18.39;100.00;101078.50;5052085;28;20025;-71
2023/09/12 06:30:20;;;;;;;26.17;17.95;;;;;;;18.36;100.00;101087.25;5063042;28;20392;-70
2023/09/12 06:32:45;;;;;;;24.75;17.90;;;;;;;18.30;100.00;101077.34;5051988;28;20032;-72
2023/09/12 06:35:10;;;;;;;27.45;17.83;;;;;;;18.37;100.00;101086.13;5052302;28;20112;-70
2023/09/12 06:37:38;;;;;;;33.20;18.70;;;;;;;18.36;100.00;101087.25;5052161;28;20021;-69
2023/09/12 06:40:03;;;;;;;23.60;17.52;;;;;;;18.43;100.00;101087.78;5052287;28;20033;-72
2023/09/12 06:42:29;;;;;;;23.73;18.10;;;;;;;18.45;100.00;101096.59;5061755;28;20036;-68
2023/09/12 06:44:54;;;;;;;25.15;17.50;;;;;;;18.37;100.00;101094.34;5071877;28;20028;-68
2023/09/12 06:47:19;;;;;;;23.17;16.77;;;;;;;18.41;100.00;101103.69;5052744;28;20396;-68
2023/09/12 06:49:45;;;;;;;25.15;16.83;;;;;;;18.47;100.00;101104.53;5052005;28;20032;-69
2023/09/12 06:52:10;;;;;;;21.45;17.02;;;;;;;18.50;100.00;101104.78;5052135;28;20029;-67
2023/09/12 06:54:36;;;;;;;20.80;17.15;;;;;;;18.53;100.00;101101.50;5052049;28;20040;-68
2023/09/12 06:57:01;;;;;;;22.67;17.90;;;;;;;18.51;100.00;101103.72;5051817;28;20146;-67
2023/09/12 06:59:26;;;;;;;22.08;17.88;;;;;;;18.54;100.00;101105.91;5052075;28;20032;-67
2023/09/12 07:01:52;;;;;;;25.30;18.95;;;;;;;18.58;100.00;101115.22;5063909;28;20035;-68
2023/09/12 07:04:17;;;;;;;24.90;18.27;;;;;;;18.67;100.00;101109.19;5071902;28;20060;-66
2023/09/12 07:06:42;;;;;;;23.85;18.40;;;;;;;18.71;100.00;101102.09;5055798;28;20032;-68
2023/09/12 07:09:08;;;;;;;22.80;18.42;;;;;;;18.73;100.00;101105.38;5054939;28;20031;-68
2023/09/12 07:11:34;;;;;;;25.00;18.98;;;;;;;18.74;100.00;101104.28;5055493;28;20033;-67
2023/09/12 07:14:00;;;;;;;31.83;19.25;;;;;;;18.79;100.00;101107.00;5055419;28;20087;-67
2023/09/12 07:16:25;;;;;;;26.98;19.95;;;;;;;18.74;100.00;101109.75;5055906;28;20033;-68
2023/09/12 07:18:51;;;;;;;24.33;19.02;;;;;;;18.77;100.00;101103.72;5055042;28;20032;-67
2023/09/12 07:21:17;;;;;;;28.45;20.73;;;;;;;18.67;100.00;101109.19;5055484;28;20037;-67
2023/09/12 07:23:42;;;;;;;25.30;19.67;;;;;;;18.73;100.00;101119.06;5054594;28;20035;-67
2023/09/12 07:26:13;;;;;;;26.05;20.08;;;;;;;18.74;100.00;101120.72;5065271;28;20029;-67
2023/09/12 07:28:39;;;;;;;24.02;20.60;;;;;;;18.73;100.00;101113.59;5054739;28;20086;-67
2023/09/12 07:31:04;;;;;;;25.17;20.00;;;;;;;18.75;100.00;101114.13;5055503;28;20029;-67
2023/09/12 07:33:29;;;;;;;24.75;21.40;;;;;;;18.65;100.00;101128.66;5055223;28;20116;-66
2023/09/12 07:35:55;;;;;;;28.30;21.55;;;;;;;18.76;100.00;101124.00;5055072;28;20119;-67
2023/09/12 07:38:21;;;;;;;24.40;20.77;;;;;;;18.67;100.00;101120.16;5037267;28;20037;-68
2023/09/12 07:40:47;;;;;;;27.80;22.20;;;;;;;18.65;100.00;101114.97;5057844;28;20037;-68
2023/09/12 07:43:12;;;;;;;29.73;21.15;;;;;;;18.71;100.00;101124.81;5069138;28;20533;-68
2023/09/12 07:45:37;;;;;;;24.85;21.35;;;;;;;18.72;100.00;101118.25;5054709;28;20029;-68
2023/09/12 07:48:08;;;;;;;26.23;21.00;;;;;;;18.86;100.00;101115.81;5054855;28;20108;-67
2023/09/12 07:50:33;;;;;;;24.10;20.10;;;;;;;18.88;100.00;101110.88;5055077;28;20116;-68
2023/09/12 07:52:59;;;;;;;25.20;18.58;;;;;;;19.00;100.00;101112.53;5054775;28;20277;-68
2023/09/12 07:55:24;;;;;;;23.92;18.15;;;;;;;19.03;100.00;101112.78;5054839;28;20051;-68
2023/09/12 07:57:49;;;;;;;21.17;17.45;;;;;;;19.06;100.00;101106.75;5061746;28;20085;-68
2023/09/12 08:00:16;;;;;;;20.92;16.90;;;;;;;19.13;100.00;101109.22;5072702;28;20028;-68
2023/09/12 08:02:42;;;;;;;18.40;16.27;;;;;;;19.19;100.00;101112.75;5033068;28;20028;-68
2023/09/12 08:05:08;;;;;;;18.83;15.38;;;;;;;19.21;100.00;101116.88;5057533;28;20033;-68
2023/09/12 08:07:34;;;;;;;19.23;15.05;;;;;;;19.29;100.00;101126.47;5054658;28;20029;-67
2023/09/12 08:09:59;;;;;;;18.00;15.68;;;;;;;19.37;100.00;101127.81;5038939;28;20078;-68
2023/09/12 08:12:26;;;;;;;19.98;15.20;;;;;;;19.50;100.00;101143.72;5054494;28;20071;-67
2023/09/12 08:14:52;;;;;;;19.15;14.65;;;;;;;19.56;100.00;101153.59;5054091;28;20040;-67
2023/09/12 08:17:18;;;;;;;20.67;14.88;;;;;;;19.60;100.00;101151.94;5053691;28;20071;-68
2023/09/12 08:19:43;;;;;;;18.27;14.13;;;;;;;19.64;100.00;101149.44;5060026;28;20067;-68
2023/09/12 08:22:10;;;;;;;17.92;14.48;;;;;;;19.71;100.00;101154.66;5074051;28;20089;-68
2023/09/12 08:24:36;;;;;;;17.92;15.35;;;;;;;19.76;100.00;101151.88;5074249;28;20067;-67
2023/09/12 08:27:03;;;;;;;16.42;12.90;;;;;;;19.83;100.00;101153.25;5073794;28;20031;-68
2023/09/12 08:29:29;;;;;;;17.05;13.38;;;;;;;19.86;100.00;101154.63;5056293;28;20021;-68
2023/09/12 08:31:55;;;;;;;17.02;14.18;;;;;;;19.88;100.00;101170.81;5074291;28;20097;-69
2023/09/12 08:34:21;;;;;;;19.23;14.20;;;;;;;19.91;100.00;101176.56;5065950;28;20461;-68
2023/09/12 08:36:47;;;;;;;16.58;13.68;;;;;;;19.96;100.00;101176.56;5055802;28;20033;-69
2023/09/12 08:39:15;;;;;;;23.00;14.38;;;;;;;19.99;100.00;101177.94;5059762;28;20166;-69
2023/09/12 08:41:41;;;;;;;18.67;13.63;;;;;;;20.00;100.00;101171.31;5070640;28;20032;-69
2023/09/12 08:44:07;;;;;;;17.48;12.48;;;;;;;19.99;100.00;101177.94;5055705;28;20487;-69
2023/09/12 08:46:32;;;;;;;14.80;12.40;;;;;;;20.03;100.00;101169.94;5055903;28;20036;-66
2023/09/12 08:48:58;;;;;;;16.30;13.38;;;;;;;20.03;100.00;101161.72;5055726;28;20036;-67
2023/09/12 08:51:23;;;;;;;16.70;13.18;;;;;;;20.10;100.00;101173.22;5073481;28;20029;-69
2023/09/12 08:53:50;;;;;;;16.58;12.93;;;;;;;20.11;100.00;101174.84;5073461;28;20025;-68
2023/09/12 08:56:16;;;;;;;15.75;11.98;;;;;;;20.14;100.00;101175.13;5065485;28;20032;-68
2023/09/12 08:58:43;;;;;;;12.57;10.77;;;;;;;20.16;100.00;101175.66;5035747;28;20112;-68
2023/09/12 09:01:10;;;;;;;11.82;9.13;;;;;;;20.17;100.00;101174.56;5050696;28;20036;-68
2023/09/12 09:03:37;;;;;;;12.00;9.50;;;;;;;20.22;100.00;101181.97;5053577;28;20044;-68
2023/09/12 09:06:04;;;;;;;11.25;9.98;;;;;;;20.25;100.00;101192.38;5052812;28;20033;-71
2023/09/12 09:08:31;;;;;;;12.13;10.07;;;;;;;20.29;100.00;101192.63;5053518;28;20025;-69
2023/09/12 09:11:03;;;;;;;13.98;10.35;;;;;;;20.31;100.00;101182.19;5052034;28;20025;-71
2023/09/12 09:13:29;;;;;;;10.73;9.50;;;;;;;20.37;100.00;101170.06;5035544;28;20112;-70
2023/09/12 09:16:14;;;;;;;13.38;10.45;;;;;;;20.47;100.00;101174.66;5061723;28;20154;-70
2023/09/12 09:18:59;;;;;;;19.55;14.38;;;;;;;20.49;100.00;101164.22;5078164;28;20037;-70
2023/09/12 09:21:31;;;;;;;21.80;15.52;;;;;;;20.45;100.00;101157.66;5068124;28;20418;-69
2023/09/12 09:23:57;;;;;;;;;;;;;;;20.63;100.00;101158.91;5083914;28;20024;-71
2023/09/12 09:26:24;;;;;;;23.35;17.60;;;;;;;20.58;100.00;101151.53;5082637;28;20363;-71
2023/09/12 09:29:07;;;;;;;24.80;19.58;;;;;;;20.60;100.00;101149.31;5073036;28;20149;-70
2023/09/12 09:31:33;;;;;;;25.38;20.35;;;;;;;20.57;100.00;101149.06;5073019;28;20028;-70
2023/09/12 09:33:59;;;;;;;29.63;20.65;;;;;;;20.58;100.00;101142.44;5065323;28;20115;-71
2023/09/12 09:36:25;;;;;;;32.08;21.08;;;;;;;20.62;100.00;101147.09;5065183;28;20071;-71
2023/09/12 09:38:51;;;;;;;29.45;22.20;;;;;;;20.72;100.00;101157.22;5073052;28;20039;-72
2023/09/12 09:41:20;;;;;;;30.48;23.60;;;;;;;20.82;100.00;101156.31;5073192;28;20029;-73
2023/09/12 09:43:45;;;;;;;28.48;22.35;;;;;;;20.94;100.00;101142.19;5055135;28;20387;-72
2023/09/12 09:46:15;;;;;;;29.45;23.10;;;;;;;21.00;100.00;101146.53;5054561;28;20041;-70
2023/09/12 09:48:49;;;;;;;33.37;24.40;;;;;;;21.05;100.00;101143.78;5074575;28;20045;-73
2023/09/12 09:51:14;;;;;;;32.35;24.02;;;;;;;21.11;100.00;101141.81;5066059;28;20032;-70
2023/09/12 09:53:40;;;;;;;32.80;23.80;;;;;;;21.17;100.00;101144.22;5064449;28;20013;-72
2023/09/12 09:56:12;;;;;;;31.02;23.17;;;;;;;21.28;100.00;101158.69;5081427;28;20419;-70
2023/09/12 09:58:53;;;;;;;30.17;24.65;;;;;;;21.32;100.00;101148.75;5079012;28;20032;-71
2023/09/12 10:01:25;;;;;;;35.33;24.35;;;;;;;21.27;100.00;101157.03;5051971;28;20353;-72
2023/09/12 10:03:51;;;;;;;30.27;23.85;;;;;;;21.31;100.00;101158.09;5060923;28;20044;-72
2023/09/12 10:06:18;;;;;;;32.35;24.33;;;;;;;21.32;100.00;101158.94;5060705;28;20035;-69
2023/09/12 10:08:51;;;;;;;30.58;24.40;;;;;;;21.34;100.00;101157.53;5067151;28;20043;-72
2023/09/12 10:11:18;;;;;;;33.63;23.42;;;;;;;21.52;100.00;101157.94;5055190;28;20377;-72
2023/09/12 10:13:52;;;;;;;30.02;22.25;;;;;;;21.68;100.00;101150.31;5067699;28;20090;-71
2023/09/12 10:16:19;;;;;;;25.98;20.60;;;;;;;21.68;100.00;101142.06;5072194;28;20051;-72
2023/09/12 10:18:57;;;;;;;25.25;19.55;;;;;;;21.65;100.00;101145.41;5059388;28;20045;-69
2023/09/12 10:21:29;;;;;;;29.25;21.67;;;;;;;21.67;100.00;101149.50;5052378;28;20033;-71
2023/09/12 10:23:57;;;;;;;29.02;23.25;;;;;;;21.68;100.00;101150.31;5052168;28;20119;-71
2023/09/12 10:26:23;;;;;;;28.10;21.85;;;;;;;21.70;100.00;101148.91;5052291;28;20037;-71
2023/09/12 10:28:50;;;;;;;33.75;23.98;;;;;;;21.79;100.00;101140.03;5052070;28;20029;-70
2023/09/12 10:31:17;;;;;;;29.92;23.25;;;;;;;21.95;100.00;101135.94;5055128;28;20029;-68
2023/09/12 10:33:44;;;;;;;29.23;22.42;;;;;;;22.01;100.00;101142.22;5057304;28;20048;-71
2023/09/12 10:36:11;;;;;;;27.27;22.45;;;;;;;21.97;100.00;101135.66;5060114;28;20029;-70
2023/09/12 10:38:45;;;;;;;28.75;22.55;;;;;;;21.88;100.00;101141.81;5068974;28;20106;-69
2023/09/12 10:41:13;;;;;;;26.75;21.27;;;;;;;21.90;100.00;101141.53;5076061;28;20033;-69
2023/09/12 10:43:40;;;;;;;27.85;23.30;;;;;;;22.00;100.00;101135.88;5076297;28;20056;-70
2023/09/12 10:46:06;;;;;;;28.45;22.10;;;;;;;22.09;100.00;101134.13;5057891;28;20379;-70
2023/09/12 10:48:32;;;;;;;32.60;25.63;;;;;;;22.13;100.00;101137.94;5076400;28;20033;-70
2023/09/12 10:51:00;;;;;;;35.72;27.15;;;;;;;22.16;100.00;101132.94;5059834;28;20036;-71
2023/09/12 10:53:28;;;;;;;32.08;27.10;;;;;;;22.26;100.00;101138.31;5055738;28;20036;-70
2023/09/12 10:56:13;;;;;;;35.42;28.65;;;;;;;22.32;100.00;101139.09;5055651;28;20021;-69
2023/09/12 10:59:06;;;;;;;37.90;28.88;;;;;;;22.43;100.00;101143.31;5056022;28;20028;-69